createdAt,value
2022-09-22T00:00:05.010Z,2.75
2022-09-22T00:02:38.744Z,2.38
2022-09-22T00:05:06.926Z,2.50
2022-09-22T00:07:40.973Z,2.20
2022-09-22T00:10:08.703Z,2.50
2022-09-22T00:12:43.885Z,1.80
2022-09-22T00:15:11.717Z,2.38
2022-09-22T00:17:45.905Z,1.67
2022-09-22T00:20:20.034Z,1.50
2022-09-22T00:22:58.073Z,2.15
2022-09-22T00:25:26.649Z,1.33
2022-09-22T00:28:00.955Z,1.80
2022-09-22T00:30:28.239Z,1.70
2022-09-22T00:33:01.877Z,1.52
2022-09-22T00:35:29.232Z,1.60
2022-09-22T00:38:02.867Z,1.70
2022-09-22T00:40:30.183Z,1.33
2022-09-22T00:43:29.938Z,1.38
2022-09-22T00:46:03.448Z,1.10
2022-09-22T00:48:40.442Z,1.63
2022-09-22T00:51:11.709Z,1.65
2022-09-22T00:53:45.858Z,1.55
2022-09-22T00:56:41.984Z,0.77
2022-09-22T00:59:21.054Z,1.50
2022-09-22T01:01:50.880Z,1.40
2022-09-22T01:04:26.108Z,1.20
2022-09-22T01:07:01.909Z,1.20
2022-09-22T01:09:40.926Z,1.00
2022-09-22T01:12:14.897Z,1.38
2022-09-22T01:15:41.016Z,1.08
2022-09-22T01:20:52.954Z,0.90
2022-09-22T01:24:14.612Z,1.52
2022-09-22T01:27:29.522Z,1.17
2022-09-22T01:30:34.499Z,1.00
2022-09-22T01:33:31.268Z,1.25
2022-09-22T01:36:29.453Z,1.27
2022-09-22T01:39:08.183Z,1.38
2022-09-22T01:41:49.496Z,1.10
2022-09-22T01:44:26.127Z,1.20
2022-09-22T01:47:08.739Z,1.45
2022-09-22T01:49:40.955Z,1.25
2022-09-22T01:52:24.507Z,1.20
2022-09-22T01:55:14.349Z,1.00
2022-09-22T01:58:12.498Z,1.25
2022-09-22T02:00:44.679Z,0.82
2022-09-22T02:03:25.632Z,0.80
2022-09-22T02:06:18.793Z,1.02
2022-09-22T02:08:56.864Z,0.80
2022-09-22T02:11:27.140Z,0.90
2022-09-22T02:14:01.613Z,0.98
2022-09-22T02:16:29.528Z,1.20
2022-09-22T02:19:23.722Z,0.73
2022-09-22T02:21:52.098Z,1.00
2022-09-22T02:24:47.766Z,0.93
2022-09-22T02:27:42.699Z,0.82
2022-09-22T02:30:13.066Z,0.80
2022-09-22T02:32:52.536Z,0.90
2022-09-22T02:35:28.657Z,1.45
2022-09-22T02:38:06.897Z,0.75
2022-09-22T02:40:57.495Z,1.27
2022-09-22T02:44:00.100Z,0.90
2022-09-22T02:46:47.490Z,0.90
2022-09-22T02:49:24.709Z,1.10
2022-09-22T02:51:54.626Z,1.20
2022-09-22T02:54:30.907Z,1.00
2022-09-22T02:56:58.170Z,1.08
2022-09-22T02:59:31.606Z,1.10
2022-09-22T03:01:59.610Z,0.90
2022-09-22T03:04:27.315Z,1.23
2022-09-22T03:07:01.496Z,1.00
2022-09-22T03:09:35.642Z,1.08
2022-09-22T03:12:03.026Z,1.20
2022-09-22T03:14:30.330Z,0.63
2022-09-22T03:17:04.705Z,0.95
2022-09-22T03:19:51.837Z,1.10
2022-09-22T03:22:25.533Z,1.10
2022-09-22T03:24:53.189Z,0.90
2022-09-22T03:27:26.586Z,0.85
2022-09-22T03:29:55.405Z,1.20
2022-09-22T03:32:29.627Z,0.90
2022-09-22T03:34:57.250Z,1.00
2022-09-22T03:37:31.572Z,1.23
2022-09-22T03:39:59.110Z,0.80
2022-09-22T03:42:32.600Z,1.52
2022-09-22T03:45:00.207Z,1.13
2022-09-22T03:47:33.736Z,0.90
2022-09-22T03:50:07.581Z,1.17
2022-09-22T03:52:36.366Z,1.20
2022-09-22T03:55:10.659Z,0.80
2022-09-22T03:57:40.116Z,0.90
2022-09-22T04:00:08.226Z,0.98
2022-09-22T04:02:41.649Z,0.50
2022-09-22T04:05:10.277Z,1.13
2022-09-22T04:07:44.606Z,0.77
2022-09-22T04:10:12.107Z,0.88
2022-09-22T04:12:45.625Z,0.90
2022-09-22T04:15:12.885Z,0.90
2022-09-22T04:17:46.666Z,0.80
2022-09-22T04:20:26.619Z,0.73
2022-09-22T04:22:53.996Z,1.00
2022-09-22T04:25:27.564Z,0.90
2022-09-22T04:27:55.085Z,0.85
2022-09-22T04:30:28.585Z,0.90
2022-09-22T04:32:56.155Z,1.00
2022-09-22T04:35:29.599Z,1.00
2022-09-22T04:37:58.615Z,1.00
2022-09-22T04:40:32.550Z,0.82
2022-09-22T04:43:00.242Z,0.80
2022-09-22T04:45:39.376Z,0.93
2022-09-22T04:48:07.577Z,0.65
2022-09-22T04:50:45.744Z,0.60
2022-09-22T04:53:15.968Z,0.80
2022-09-22T04:55:51.577Z,0.65
2022-09-22T04:58:27.562Z,0.90
2022-09-22T05:00:56.195Z,0.77
2022-09-22T05:03:30.677Z,0.98
2022-09-22T05:05:57.969Z,0.93
2022-09-22T05:08:31.580Z,0.80
2022-09-22T05:11:06.019Z,0.80
2022-09-22T05:13:39.518Z,1.08
2022-09-22T05:16:14.610Z,0.95
2022-09-22T05:23:58.040Z,1.50
2022-09-22T05:26:32.566Z,0.93
2022-09-22T05:29:08.690Z,1.02
2022-09-22T05:31:42.755Z,1.00
2022-09-22T05:34:10.414Z,1.05
2022-09-22T05:36:44.769Z,1.10
2022-09-22T05:39:18.528Z,1.00
2022-09-22T05:41:52.531Z,1.10
2022-09-22T05:44:26.715Z,1.20
2022-09-22T05:46:53.909Z,1.07
2022-09-22T05:49:27.710Z,1.10
2022-09-22T05:51:58.612Z,1.20
2022-09-22T05:54:33.556Z,0.73
2022-09-22T05:57:07.951Z,0.90
2022-09-22T05:59:35.025Z,0.85
2022-09-22T06:02:23.737Z,1.02
2022-09-22T06:04:55.139Z,1.15
2022-09-22T06:07:30.610Z,1.13
2022-09-22T06:09:58.074Z,1.05
2022-09-22T06:12:31.605Z,0.95
2022-09-22T06:14:59.316Z,1.15
2022-09-22T06:17:26.760Z,1.17
2022-09-22T06:20:01.596Z,0.90
2022-09-22T06:22:37.505Z,1.20
2022-09-22T06:25:11.611Z,1.20
2022-09-22T06:27:40.268Z,1.08
2022-09-22T06:30:18.975Z,1.38
2022-09-22T06:33:01.840Z,1.13
2022-09-22T06:35:36.890Z,1.08
2022-09-22T06:38:19.580Z,1.10
2022-09-22T06:40:46.978Z,0.80
2022-09-22T06:43:29.555Z,1.13
2022-09-22T06:46:08.575Z,0.63
2022-09-22T06:48:37.096Z,1.20
2022-09-22T06:51:04.529Z,0.90
2022-09-22T06:53:38.775Z,0.93
2022-09-22T06:56:13.012Z,0.70
2022-09-22T06:59:05.531Z,0.60
2022-09-22T07:01:37.690Z,0.95
2022-09-22T07:04:06.298Z,1.23
2022-09-22T07:06:40.787Z,0.80
2022-09-22T07:09:09.532Z,1.10
2022-09-22T07:11:44.655Z,0.90
2022-09-22T07:16:47.601Z,1.27
2022-09-22T07:19:22.645Z,1.20
2022-09-22T07:21:56.346Z,1.25
2022-09-22T07:24:30.459Z,1.00
2022-09-22T07:26:58.704Z,1.10
2022-09-22T07:29:26.126Z,1.20
2022-09-22T07:32:03.615Z,1.55
2022-09-22T07:34:31.610Z,1.10
2022-09-22T07:37:06.636Z,0.80
2022-09-22T07:39:40.545Z,0.60
2022-09-22T07:42:15.550Z,1.02
2022-09-22T07:45:01.347Z,0.60
2022-09-22T07:47:53.685Z,1.00
2022-09-22T07:50:20.855Z,0.90
2022-09-22T07:52:59.625Z,0.98
2022-09-22T07:55:27.129Z,1.02
2022-09-22T07:58:05.695Z,1.15
2022-09-22T08:00:33.241Z,0.70
2022-09-22T08:03:07.764Z,0.82
2022-09-22T08:05:35.100Z,1.40
2022-09-22T08:08:10.766Z,0.70
2022-09-22T08:10:46.595Z,0.85
2022-09-22T08:13:14.137Z,0.73
2022-09-22T08:15:49.595Z,0.60
2022-09-22T08:18:18.799Z,0.85
2022-09-22T08:20:59.634Z,0.88
2022-09-22T08:23:28.104Z,1.00
2022-09-22T08:26:02.694Z,1.27
2022-09-22T08:28:29.810Z,1.40
2022-09-22T08:31:04.666Z,1.10
2022-09-22T08:33:33.844Z,0.90
2022-09-22T08:36:10.706Z,0.88
2022-09-22T08:38:39.396Z,0.80
2022-09-22T08:41:22.654Z,1.13
2022-09-22T08:44:01.054Z,1.00
2022-09-22T08:46:40.639Z,0.73
2022-09-22T08:50:00.554Z,0.65
2022-09-22T08:52:50.775Z,0.88
2022-09-22T08:55:25.341Z,0.77
2022-09-22T08:58:18.638Z,0.85
2022-09-22T09:01:08.635Z,0.70
2022-09-22T09:03:43.671Z,0.90
2022-09-22T09:06:37.845Z,1.10
2022-09-22T09:09:22.481Z,0.63
2022-09-22T09:12:13.638Z,0.80
2022-09-22T09:14:56.601Z,0.68
2022-09-22T09:17:29.258Z,1.02
2022-09-22T09:20:29.598Z,1.00
2022-09-22T09:22:58.050Z,1.00
2022-09-22T09:25:47.826Z,0.73
2022-09-22T09:28:34.644Z,0.80
2022-09-22T09:31:52.755Z,1.05
2022-09-22T09:34:35.920Z,1.02
2022-09-22T09:37:13.775Z,0.68
2022-09-22T09:39:49.555Z,1.00
2022-09-22T09:42:23.494Z,0.85
2022-09-22T09:45:01.880Z,0.80
2022-09-22T09:47:49.864Z,1.10
2022-09-22T09:50:23.659Z,0.80
2022-09-22T09:52:56.364Z,0.85
2022-09-22T09:55:36.243Z,1.15
2022-09-22T09:58:06.739Z,0.90
2022-09-22T10:00:43.568Z,0.88
2022-09-22T10:03:22.454Z,1.02
2022-09-22T10:06:06.587Z,1.15
2022-09-22T10:08:44.086Z,0.90
2022-09-22T10:11:19.864Z,0.85
2022-09-22T10:13:57.123Z,0.77
2022-09-22T10:16:37.863Z,1.00
2022-09-22T10:19:44.699Z,1.13
2022-09-22T10:22:39.144Z,0.95
2022-09-22T10:25:28.704Z,1.20
2022-09-22T10:28:16.751Z,1.13
2022-09-22T10:30:47.234Z,1.20
2022-09-22T10:33:27.665Z,1.10
2022-09-22T10:36:12.180Z,1.20
2022-09-22T10:38:45.623Z,1.45
2022-09-22T10:41:24.763Z,1.23
2022-09-22T10:44:37.523Z,1.55
2022-09-22T10:47:28.676Z,1.55
2022-09-22T10:50:35.666Z,1.40
2022-09-22T10:53:29.461Z,1.20
2022-09-22T10:56:20.676Z,1.48
2022-09-22T10:59:12.395Z,1.10
2022-09-22T11:02:32.835Z,1.15
2022-09-22T11:05:05.967Z,1.60
2022-09-22T11:08:10.978Z,1.10
2022-09-22T11:11:26.741Z,1.38
2022-09-22T11:14:18.664Z,1.40
2022-09-22T11:17:27.739Z,1.15
2022-09-22T11:20:47.759Z,1.10
2022-09-22T11:23:27.979Z,1.00
2022-09-22T11:26:39.938Z,1.10
2022-09-22T11:29:28.739Z,0.93
2022-09-22T11:32:17.120Z,0.80
2022-09-22T11:35:22.160Z,0.77
2022-09-22T11:38:21.759Z,0.52
2022-09-22T11:43:44.798Z,0.60
2022-09-22T11:46:34.059Z,0.70
2022-09-22T11:49:27.273Z,0.50
2022-09-22T11:52:16.641Z,0.93
2022-09-22T11:55:17.219Z,1.30
2022-09-22T11:57:57.778Z,1.13
2022-09-22T12:00:25.642Z,1.23
2022-09-22T12:03:05.978Z,1.30
2022-09-22T12:05:47.138Z,1.33
2022-09-22T12:08:14.559Z,1.35
2022-09-22T12:10:57.228Z,1.08
2022-09-22T12:13:37.199Z,1.10
2022-09-22T12:16:07.460Z,1.15
2022-09-22T12:19:11.778Z,1.13
2022-09-22T12:22:01.879Z,1.25
2022-09-22T12:24:30.798Z,1.40
2022-09-22T12:27:04.668Z,1.65
2022-09-22T12:29:32.663Z,1.50
2022-09-22T12:32:09.859Z,1.27
2022-09-22T12:34:45.203Z,1.23
2022-09-22T12:37:40.758Z,1.15
2022-09-22T12:40:26.935Z,0.93
2022-09-22T12:43:02.782Z,0.90
2022-09-22T12:45:43.989Z,0.80
2022-09-22T12:48:36.518Z,0.70
2022-09-22T12:51:32.179Z,0.90
2022-09-22T12:54:28.752Z,0.90
2022-09-22T12:57:24.000Z,0.88
2022-09-22T13:00:30.610Z,0.70
2022-09-22T13:03:02.068Z,0.77
2022-09-22T13:05:42.936Z,0.70
2022-09-22T13:08:50.586Z,0.63
2022-09-22T13:11:17.940Z,0.63
2022-09-22T13:13:57.626Z,0.80
2022-09-22T13:16:31.897Z,0.60
2022-09-22T13:19:07.754Z,0.85
2022-09-22T13:21:49.783Z,0.82
2022-09-22T13:24:25.074Z,0.80
2022-09-22T13:27:11.723Z,0.70
2022-09-22T13:29:45.726Z,0.60
2022-09-22T13:32:27.138Z,0.70
2022-09-22T13:35:01.653Z,0.73
2022-09-22T13:37:37.712Z,0.80
2022-09-22T13:40:11.408Z,0.80
2022-09-22T13:42:49.823Z,0.75
2022-09-22T13:45:30.821Z,0.47
2022-09-22T13:48:13.742Z,0.50
2022-09-22T13:50:53.305Z,0.60
2022-09-22T13:53:28.815Z,0.50
2022-09-22T13:55:58.293Z,0.43
2022-09-22T13:58:46.694Z,0.60
2022-09-22T14:01:26.881Z,0.50
2022-09-22T14:03:56.075Z,0.40
2022-09-22T14:06:40.744Z,0.63
2022-09-22T14:09:09.103Z,0.60
2022-09-22T14:11:44.014Z,0.55
2022-09-22T14:17:04.775Z,0.57
2022-09-22T14:19:42.233Z,0.70
2022-09-22T14:22:30.143Z,0.70
2022-09-22T14:25:07.977Z,0.68
2022-09-22T14:27:48.259Z,0.80
2022-09-22T14:30:25.904Z,0.50
2022-09-22T14:33:10.853Z,0.60
2022-09-22T14:35:39.163Z,0.52
2022-09-22T14:38:18.895Z,0.52
2022-09-22T14:40:55.035Z,0.70
2022-09-22T14:43:48.885Z,0.70
2022-09-22T14:46:35.260Z,0.90
2022-09-22T14:49:49.763Z,0.80
2022-09-22T14:52:34.580Z,0.90
2022-09-22T14:55:23.843Z,0.60
2022-09-22T14:57:51.873Z,0.77
2022-09-22T15:00:45.795Z,0.93
2022-09-22T15:03:29.877Z,0.80
2022-09-22T15:06:23.768Z,0.93
2022-09-22T15:08:59.543Z,0.65
2022-09-22T15:11:52.247Z,0.70
2022-09-22T15:14:48.006Z,0.70
2022-09-22T15:18:00.862Z,0.60
2022-09-22T15:20:42.965Z,0.57
2022-09-22T15:23:40.656Z,0.68
2022-09-22T15:26:20.706Z,0.50
2022-09-22T15:28:58.466Z,0.50
2022-09-22T15:31:29.906Z,0.80
2022-09-22T15:34:06.437Z,0.77
2022-09-22T15:36:49.494Z,0.80
2022-09-22T15:39:31.474Z,0.55
2022-09-22T15:41:58.932Z,0.65
2022-09-22T15:44:33.122Z,0.50
2022-09-22T15:47:01.287Z,0.60
2022-09-22T15:49:36.834Z,0.47
2022-09-22T15:52:11.759Z,0.60
2022-09-22T15:54:38.956Z,0.52
2022-09-22T15:57:17.649Z,0.57
2022-09-22T15:59:52.178Z,0.70
2022-09-22T16:02:26.722Z,0.60
2022-09-22T16:04:54.939Z,0.40
2022-09-22T16:07:28.677Z,0.77
2022-09-22T16:10:02.888Z,0.75
2022-09-22T16:12:38.045Z,0.50
2022-09-22T16:17:49.886Z,0.50
2022-09-22T16:20:25.234Z,0.75
2022-09-22T16:23:06.750Z,0.50
2022-09-22T16:25:34.214Z,0.50
2022-09-22T16:28:08.692Z,0.45
2022-09-22T16:30:36.256Z,0.50
2022-09-22T16:33:11.733Z,0.60
2022-09-22T16:35:39.772Z,0.60
2022-09-22T16:38:13.689Z,0.60
2022-09-22T16:40:41.701Z,0.60
2022-09-22T16:43:17.718Z,0.50
2022-09-22T16:46:09.797Z,0.55
2022-09-22T16:48:42.263Z,0.40
2022-09-22T16:51:16.687Z,0.60
2022-09-22T16:53:51.732Z,0.88
2022-09-22T16:58:55.108Z,1.05
2022-09-22T17:01:24.030Z,1.38
2022-09-22T17:04:01.751Z,1.40
2022-09-22T17:06:29.159Z,1.00
2022-09-22T17:08:58.128Z,1.25
2022-09-22T17:11:39.912Z,1.10
2022-09-22T17:14:12.587Z,1.10
2022-09-22T17:16:59.582Z,1.48
2022-09-22T17:19:41.951Z,1.00
2022-09-22T17:22:16.161Z,1.08
2022-09-22T17:24:50.852Z,0.90
2022-09-22T17:27:19.141Z,0.85
2022-09-22T17:29:53.696Z,1.13
2022-09-22T17:32:21.336Z,1.30
2022-09-22T17:34:57.117Z,1.17
2022-09-22T17:37:32.350Z,1.00
2022-09-22T17:39:59.624Z,0.95
2022-09-22T17:42:33.829Z,1.17
2022-09-22T17:45:01.078Z,1.00
2022-09-22T17:48:03.843Z,1.20
2022-09-22T17:50:50.203Z,1.20
2022-09-22T17:53:42.842Z,0.85
2022-09-22T17:56:13.005Z,1.02
2022-09-22T17:58:47.125Z,1.00
2022-09-22T18:01:15.054Z,1.10
2022-09-22T18:03:52.813Z,0.98
2022-09-22T18:06:21.362Z,1.00
2022-09-22T18:08:59.787Z,0.93
2022-09-22T18:11:28.092Z,1.20
2022-09-22T18:14:02.951Z,0.85
2022-09-22T18:16:33.998Z,1.00
2022-09-22T18:19:11.923Z,1.58
2022-09-22T18:21:45.886Z,1.23
2022-09-22T18:24:26.846Z,1.08
2022-09-22T18:26:55.855Z,1.40
2022-09-22T18:29:29.915Z,1.10
2022-09-22T18:32:00.364Z,1.17
2022-09-22T18:34:36.884Z,1.05
2022-09-22T18:37:11.513Z,1.45
2022-09-22T18:39:51.234Z,0.90
2022-09-22T18:42:22.308Z,0.98
2022-09-22T18:44:56.999Z,1.25
2022-09-22T18:47:25.272Z,1.55
2022-09-22T18:49:59.818Z,1.48
2022-09-22T18:52:33.971Z,1.52
2022-09-22T18:55:08.764Z,1.20
2022-09-22T18:57:36.803Z,1.60
2022-09-22T19:00:12.098Z,1.05
2022-09-22T19:02:39.699Z,1.40
2022-09-22T19:05:13.974Z,2.05
2022-09-22T19:07:44.195Z,1.80
2022-09-22T19:10:22.138Z,1.70
2022-09-22T19:12:51.218Z,1.95
2022-09-22T19:15:25.841Z,1.95
2022-09-22T19:17:53.120Z,2.80
2022-09-22T19:20:33.781Z,2.42
2022-09-22T19:23:01.154Z,3.05
2022-09-22T19:25:35.776Z,3.40
2022-09-22T19:28:03.263Z,3.33
2022-09-22T19:30:37.294Z,3.88
2022-09-22T19:33:11.905Z,3.33
2022-09-22T19:35:46.203Z,3.50
2022-09-22T19:38:19.843Z,3.05
2022-09-22T19:40:48.344Z,3.00
2022-09-22T19:43:23.867Z,3.45
2022-09-22T19:45:59.477Z,3.45
2022-09-22T19:48:31.530Z,3.22
2022-09-22T19:51:06.883Z,2.83
2022-09-22T19:53:34.279Z,3.00
2022-09-22T19:56:08.788Z,3.03
2022-09-22T19:58:42.944Z,2.50
2022-09-22T20:01:17.864Z,2.55
2022-09-22T20:03:45.047Z,2.72
2022-09-22T20:06:18.763Z,2.63
2022-09-22T20:08:46.288Z,2.30
2022-09-22T20:11:26.416Z,2.58
2022-09-22T20:14:13.117Z,2.70
2022-09-22T20:16:46.895Z,2.60
2022-09-22T20:19:14.590Z,2.10
2022-09-22T20:22:00.795Z,2.00
2022-09-22T20:24:28.092Z,2.67
2022-09-22T20:27:04.218Z,2.67
2022-09-22T20:29:33.651Z,2.63
2022-09-22T20:32:07.831Z,2.35
2022-09-22T20:34:35.050Z,2.42
2022-09-22T20:37:11.241Z,2.72
2022-09-22T20:39:39.083Z,2.13
2022-09-22T20:42:12.826Z,2.25
2022-09-22T20:44:44.047Z,2.50
2022-09-22T20:47:22.926Z,2.55
2022-09-22T20:49:52.045Z,2.88
2022-09-22T20:52:27.885Z,2.67
2022-09-22T20:55:02.196Z,2.67
2022-09-22T20:57:39.040Z,2.50
2022-09-22T21:00:08.826Z,2.28
2022-09-22T21:02:36.256Z,1.98
2022-09-22T21:05:09.888Z,2.42
2022-09-22T21:07:37.100Z,2.45
2022-09-22T21:10:29.817Z,2.45
2022-09-22T21:12:59.048Z,2.22
2022-09-22T21:15:33.047Z,1.85
2022-09-22T21:18:01.107Z,2.70
2022-09-22T21:20:48.842Z,2.15
2022-09-22T21:23:16.130Z,1.77
2022-09-22T21:25:50.399Z,2.00
2022-09-22T21:28:17.602Z,2.40
2022-09-22T21:31:00.954Z,2.00
2022-09-22T21:33:29.187Z,2.10
2022-09-22T21:36:24.805Z,2.22
2022-09-22T21:39:06.815Z,2.92
2022-09-22T21:41:41.251Z,2.20
2022-09-22T21:44:15.835Z,2.35
2022-09-22T21:46:44.498Z,2.20
2022-09-22T21:49:18.986Z,2.10
2022-09-22T21:51:47.505Z,2.03
2022-09-22T21:54:25.808Z,2.13
2022-09-22T21:56:54.270Z,2.22
2022-09-22T21:59:28.749Z,2.38
2022-09-22T22:01:56.303Z,2.15
2022-09-22T22:04:29.780Z,2.58
2022-09-22T22:06:57.181Z,1.88
2022-09-22T22:09:32.900Z,2.58
2022-09-22T22:12:03.158Z,2.15
2022-09-22T22:14:41.910Z,2.65
2022-09-22T22:17:09.970Z,1.77
2022-09-22T22:19:43.791Z,2.45
2022-09-22T22:22:30.740Z,1.92
2022-09-22T22:25:04.971Z,2.15
2022-09-22T22:27:32.465Z,1.67
2022-09-22T22:30:07.206Z,1.77
2022-09-22T22:32:34.490Z,2.25
2022-09-22T22:35:09.928Z,1.90
2022-09-22T22:37:44.766Z,1.90
2022-09-22T22:40:12.078Z,2.13
2022-09-22T22:42:45.772Z,2.08
2022-09-22T22:45:19.705Z,1.80
2022-09-22T22:47:48.330Z,2.20
2022-09-22T22:50:21.839Z,2.30
2022-09-22T22:52:49.435Z,2.50
2022-09-22T22:55:23.774Z,1.95
2022-09-22T22:57:51.456Z,1.90
2022-09-22T23:00:18.960Z,2.28
2022-09-22T23:02:52.827Z,2.00
2022-09-22T23:05:20.787Z,2.30
2022-09-22T23:07:54.790Z,2.05
2022-09-22T23:10:29.890Z,1.60
2022-09-22T23:15:31.897Z,1.90
2022-09-22T23:17:59.749Z,2.78
2022-09-22T23:20:34.076Z,1.85
2022-09-22T23:23:07.566Z,2.30
2022-09-22T23:25:45.056Z,2.13
2022-09-22T23:28:12.311Z,1.92
2022-09-22T23:30:45.920Z,1.77
2022-09-22T23:33:19.815Z,2.08
2022-09-22T23:36:04.253Z,1.95
2022-09-22T23:38:39.862Z,1.95
2022-09-22T23:41:13.736Z,2.00
2022-09-22T23:43:48.039Z,2.05
2022-09-22T23:46:22.328Z,1.77
2022-09-22T23:48:49.760Z,1.92
2022-09-22T23:51:23.790Z,1.63
2022-09-22T23:53:57.999Z,1.70
2022-09-22T23:56:25.812Z,1.93
2022-09-22T23:58:59.842Z,1.85
